Airfield :
LOGIN :

Register | Disclaimer

   EN    FR    IT 

 










Legend :    VFR   Marginal VFR   IFR   Intensive IFR   Very Intensive IFR
Visi :
Ceiling :
>= 8 km
>= 3000ft
5 to 8 km
1000 to 3000 ft
1500m to 5 km
500 to 1000 ft
800 to 1500m
200 to 500 ft
< 800m
< 200 ft
Symbols :   Thunderstorms  Fog  Heavy snow  Heavy precipitations  Wind > 20 kt
SIGMETs :     Misc.  Thunderstorms  Icing  Turbulence  Mountain Waves  Volcanic Ashes






- Airport Elevation : 1363 ft


ETIC - Grafenwohr Army Air Field

CURRENT METAR :
  • 030711Z AUTO 12003KT 9999 BKN006 14/13 A2999 RMK AO2 CIG 004V006 SLP154 $

EXPIRED METARs :
  • 030656Z AUTO 00000KT 9999 BKN003 13/13 A2999 RMK AO2 SLP155 T01290127 $
  • 030638Z AUTO 00000KT 9999 OVC002 12/12 A2999 RMK AO2 SLP155 $
  • 030623Z AUTO 00000KT 4400 BR OVC002 12/11 A2999 RMK AO2 VIS 3000V4400 SLP154 $
  • 030608Z AUTO 00000KT 2000 BR VV002 11/11 A2999 RMK AO2 VIS 0600V2000 SLP155 $
  • 030556Z AUTO 00000KT 0600 R14/0700V1100 FG VV001 11/11 A3000 RMK AO2 SLP159 T01070105 10107 20074 50002 $
  • 030541Z AUTO 00000KT 0400 R14/0700V0800 FG VV001 10/10 A2999 RMK AO2 SLP155 $
  • 030456Z AUTO 00000KT 0200 R14/0450V0550 FG VV000 09/08 A2999 RMK AO2 SLP157 T00860084 $
  • 030441Z AUTO 00000KT 0400 R14/0500V0700 FG VV000 08/08 A2999 RMK AO2 SLP157 $
  • 030426Z AUTO 00000KT 0200 R14/0550V0650 FG VV000 07/07 A2999 RMK AO2 SLP159 $

TAF TAF ETIC
Valid from the 03 at 02:00 until the 04 at 08:00 UTC


030200Z 0302/0408 VRB06KT 1600 BR SKC QNH2998INS
TEMPO 0302/0306 0400 FG
BECMG 0306/0307 20006KT 9999 NSW SCT025 QNH2995INS
BECMG 0311/0312 21006KT 8000 -SHRA SCT030 QNH2991INS
TEMPO 0312/0319 21010KT 6000 -TSRA BKN035CB
TEMPO 0401/0408 1600 -SHRA BR BKN006 TX18/0316Z TN07/0304Z



MET'MAP, your aeronautical weather chart ! - Copyright ORBIFLY December 2007 - Disclaimer

ORBIFLY MET'MAP TEAM :

Programming & Development : Alexandra Zaïnal
Concept & original design : Baudouin d'Aumeries
Assistance for programming : Marc-Olivier Méhu
Technical & hardware support : Manuel Goepfert

Contact : metmap@orbifly.com




SOURCES & CREDITS :

   NOAA